Terminal Aerodrome Forecast
Issued by NWS

Home | Current Version | Previous Version | Text Only | Print | Product List | Glossary On
Versions: 1 2 3 4 5 6 7 8 9 10 11 12 13 14 15 16 17 18 19 20
000
FTUS42 KTAE 240500
TAFDHN
TAF
KDHN 240533Z 2406/2506 20008KT 6SM SHRA BR OVC004
     FM241400 25010KT P6SM BKN025
     FM241800 28010KT P6SM SCT060 BKN150=

USA.gov is the U.S. government's official web portal to all federal, state and local government web resources and services.